METAR
Diposting tanggal: 22 April 2019

Pukul : 10.00 UTC

Isi :

METAR WAGI 161000Z 14005KT 9999 SCT012 29/22 Q1008 NOSIG=